sensor_id;sensor_type;location;lat;lon;timestamp;P1;durP1;ratioP1;P2;durP2;ratioP2
18661;SDS011;61528;49.456;11.098;2022-12-29T00:02:13;1.70;;;1.40;;
18661;SDS011;61528;49.456;11.098;2022-12-29T00:04:39;1.30;;;1.20;;
18661;SDS011;61528;49.456;11.098;2022-12-29T00:07:06;2.20;;;1.60;;
18661;SDS011;61528;49.456;11.098;2022-12-29T00:09:33;1.93;;;1.23;;
18661;SDS011;61528;49.456;11.098;2022-12-29T00:11:59;1.70;;;1.47;;
18661;SDS011;61528;49.456;11.098;2022-12-29T00:14:26;1.70;;;1.33;;
18661;SDS011;61528;49.456;11.098;2022-12-29T00:17:11;1.53;;;1.33;;
18661;SDS011;61528;49.456;11.098;2022-12-29T00:19:37;1.50;;;1.40;;
18661;SDS011;61528;49.456;11.098;2022-12-29T00:22:23;1.60;;;1.47;;
18661;SDS011;61528;49.456;11.098;2022-12-29T00:25:08;1.50;;;1.40;;
18661;SDS011;61528;49.456;11.098;2022-12-29T00:27:54;3.20;;;1.40;;
18661;SDS011;61528;49.456;11.098;2022-12-29T00:30:39;1.40;;;1.30;;
18661;SDS011;61528;49.456;11.098;2022-12-29T00:33:30;1.90;;;1.50;;
18661;SDS011;61528;49.456;11.098;2022-12-29T00:36:23;1.67;;;1.40;;
18661;SDS011;61528;49.456;11.098;2022-12-29T00:39:05;1.80;;;1.33;;
18661;SDS011;61528;49.456;11.098;2022-12-29T00:41:51;1.50;;;1.20;;
18661;SDS011;61528;49.456;11.098;2022-12-29T00:44:47;1.60;;;1.40;;
18661;SDS011;61528;49.456;11.098;2022-12-29T00:47:13;2.13;;;1.30;;
18661;SDS011;61528;49.456;11.098;2022-12-29T00:49:40;2.57;;;1.37;;
18661;SDS011;61528;49.456;11.098;2022-12-29T00:52:10;1.87;;;1.30;;
18661;SDS011;61528;49.456;11.098;2022-12-29T00:54:37;1.77;;;1.40;;
18661;SDS011;61528;49.456;11.098;2022-12-29T00:57:05;1.70;;;1.30;;
18661;SDS011;61528;49.456;11.098;2022-12-29T00:59:31;1.60;;;1.40;;
18661;SDS011;61528;49.456;11.098;2022-12-29T01:01:58;2.10;;;1.70;;
18661;SDS011;61528;49.456;11.098;2022-12-29T01:04:24;1.70;;;1.43;;
18661;SDS011;61528;49.456;11.098;2022-12-29T01:06:51;1.80;;;1.33;;
18661;SDS011;61528;49.456;11.098;2022-12-29T01:09:17;1.80;;;1.30;;
18661;SDS011;61528;49.456;11.098;2022-12-29T01:12:03;2.83;;;1.40;;
18661;SDS011;61528;49.456;11.098;2022-12-29T01:14:30;2.53;;;1.50;;
18661;SDS011;61528;49.456;11.098;2022-12-29T01:16:56;1.67;;;1.27;;
18661;SDS011;61528;49.456;11.098;2022-12-29T01:19:22;1.53;;;1.30;;
18661;SDS011;61528;49.456;11.098;2022-12-29T01:21:49;1.40;;;1.23;;
18661;SDS011;61528;49.456;11.098;2022-12-29T01:24:16;2.23;;;1.30;;
18661;SDS011;61528;49.456;11.098;2022-12-29T01:26:42;3.53;;;1.00;;
18661;SDS011;61528;49.456;11.098;2022-12-29T01:29:09;2.20;;;1.30;;
18661;SDS011;61528;49.456;11.098;2022-12-29T01:31:35;1.97;;;1.30;;
18661;SDS011;61528;49.456;11.098;2022-12-29T01:34:02;1.33;;;1.20;;
18661;SDS011;61528;49.456;11.098;2022-12-29T01:36:29;1.43;;;1.30;;
18661;SDS011;61528;49.456;11.098;2022-12-29T01:38:55;1.37;;;1.27;;
18661;SDS011;61528;49.456;11.098;2022-12-29T01:41:21;1.53;;;1.40;;
18661;SDS011;61528;49.456;11.098;2022-12-29T01:43:54;2.60;;;1.30;;
18661;SDS011;61528;49.456;11.098;2022-12-29T01:48:55;1.60;;;1.30;;
18661;SDS011;61528;49.456;11.098;2022-12-29T01:51:24;1.47;;;1.37;;
18661;SDS011;61528;49.456;11.098;2022-12-29T01:53:52;1.63;;;1.30;;
18661;SDS011;61528;49.456;11.098;2022-12-29T01:56:19;2.60;;;1.40;;
18661;SDS011;61528;49.456;11.098;2022-12-29T01:58:47;2.70;;;1.60;;
18661;SDS011;61528;49.456;11.098;2022-12-29T02:01:14;2.20;;;1.47;;
18661;SDS011;61528;49.456;11.098;2022-12-29T02:03:41;3.87;;;1.50;;
18661;SDS011;61528;49.456;11.098;2022-12-29T02:06:11;2.83;;;1.60;;
18661;SDS011;61528;49.456;11.098;2022-12-29T02:08:39;2.00;;;1.50;;
18661;SDS011;61528;49.456;11.098;2022-12-29T02:11:06;1.73;;;1.40;;
18661;SDS011;61528;49.456;11.098;2022-12-29T02:13:33;2.17;;;1.30;;
18661;SDS011;61528;49.456;11.098;2022-12-29T02:16:03;2.00;;;1.43;;
18661;SDS011;61528;49.456;11.098;2022-12-29T02:23:48;1.70;;;1.60;;
18661;SDS011;61528;49.456;11.098;2022-12-29T02:26:28;1.60;;;1.30;;
18661;SDS011;61528;49.456;11.098;2022-12-29T02:31:42;1.43;;;1.33;;
18661;SDS011;61528;49.456;11.098;2022-12-29T02:34:26;1.77;;;1.43;;
18661;SDS011;61528;49.456;11.098;2022-12-29T02:37:06;1.77;;;1.30;;
18661;SDS011;61528;49.456;11.098;2022-12-29T02:42:21;1.30;;;1.20;;
18661;SDS011;61528;49.456;11.098;2022-12-29T02:44:56;1.93;;;1.60;;
18661;SDS011;61528;49.456;11.098;2022-12-29T02:47:35;1.73;;;1.37;;
18661;SDS011;61528;49.456;11.098;2022-12-29T02:52:50;2.03;;;1.37;;
18661;SDS011;61528;49.456;11.098;2022-12-29T02:55:17;2.17;;;1.30;;
18661;SDS011;61528;49.456;11.098;2022-12-29T02:57:44;1.67;;;1.47;;
18661;SDS011;61528;49.456;11.098;2022-12-29T03:00:10;2.10;;;1.50;;
18661;SDS011;61528;49.456;11.098;2022-12-29T03:18:45;1.40;;;1.10;;
18661;SDS011;61528;49.456;11.098;2022-12-29T03:21:18;1.80;;;1.57;;
18661;SDS011;61528;49.456;11.098;2022-12-29T03:23:46;1.93;;;1.30;;
18661;SDS011;61528;49.456;11.098;2022-12-29T03:26:15;1.53;;;1.40;;
18661;SDS011;61528;49.456;11.098;2022-12-29T03:28:48;2.47;;;1.40;;
18661;SDS011;61528;49.456;11.098;2022-12-29T03:31:16;1.83;;;1.30;;
18661;SDS011;61528;49.456;11.098;2022-12-29T03:33:44;1.27;;;1.10;;
18661;SDS011;61528;49.456;11.098;2022-12-29T03:36:12;1.47;;;1.13;;
18661;SDS011;61528;49.456;11.098;2022-12-29T03:41:07;3.50;;;1.40;;
18661;SDS011;61528;49.456;11.098;2022-12-29T03:43:34;1.50;;;1.40;;
18661;SDS011;61528;49.456;11.098;2022-12-29T03:46:01;2.40;;;1.30;;
18661;SDS011;61528;49.456;11.098;2022-12-29T03:48:27;1.43;;;1.33;;
18661;SDS011;61528;49.456;11.098;2022-12-29T03:50:53;3.17;;;1.50;;
18661;SDS011;61528;49.456;11.098;2022-12-29T03:53:19;2.13;;;1.50;;
18661;SDS011;61528;49.456;11.098;2022-12-29T03:55:46;1.47;;;1.30;;
18661;SDS011;61528;49.456;11.098;2022-12-29T03:58:13;1.97;;;1.57;;
18661;SDS011;61528;49.456;11.098;2022-12-29T04:00:39;2.23;;;1.17;;
18661;SDS011;61528;49.456;11.098;2022-12-29T04:03:05;2.10;;;1.40;;
18661;SDS011;61528;49.456;11.098;2022-12-29T04:05:31;1.50;;;1.40;;
18661;SDS011;61528;49.456;11.098;2022-12-29T04:07:57;1.20;;;1.10;;
18661;SDS011;61528;49.456;11.098;2022-12-29T04:10:24;2.03;;;1.40;;
18661;SDS011;61528;49.456;11.098;2022-12-29T04:12:50;2.17;;;1.23;;
18661;SDS011;61528;49.456;11.098;2022-12-29T04:15:16;1.20;;;1.10;;
18661;SDS011;61528;49.456;11.098;2022-12-29T04:17:42;1.40;;;1.30;;
18661;SDS011;61528;49.456;11.098;2022-12-29T04:20:09;1.90;;;1.40;;
18661;SDS011;61528;49.456;11.098;2022-12-29T04:22:58;1.93;;;1.30;;
18661;SDS011;61528;49.456;11.098;2022-12-29T04:25:25;2.10;;;1.30;;
18661;SDS011;61528;49.456;11.098;2022-12-29T04:27:51;2.20;;;1.60;;
18661;SDS011;61528;49.456;11.098;2022-12-29T04:30:17;2.40;;;1.27;;
18661;SDS011;61528;49.456;11.098;2022-12-29T04:32:43;2.07;;;1.40;;
18661;SDS011;61528;49.456;11.098;2022-12-29T04:35:09;1.20;;;1.10;;
18661;SDS011;61528;49.456;11.098;2022-12-29T04:37:35;2.30;;;1.40;;
18661;SDS011;61528;49.456;11.098;2022-12-29T04:40:01;1.43;;;1.17;;
18661;SDS011;61528;49.456;11.098;2022-12-29T04:42:28;2.23;;;1.57;;
18661;SDS011;61528;49.456;11.098;2022-12-29T04:44:54;3.03;;;1.40;;
18661;SDS011;61528;49.456;11.098;2022-12-29T04:47:20;1.67;;;1.10;;
18661;SDS011;61528;49.456;11.098;2022-12-29T04:49:46;1.93;;;1.30;;
18661;SDS011;61528;49.456;11.098;2022-12-29T04:52:13;3.23;;;1.40;;
18661;SDS011;61528;49.456;11.098;2022-12-29T04:54:39;2.70;;;1.30;;
18661;SDS011;61528;49.456;11.098;2022-12-29T04:57:05;1.40;;;1.30;;
18661;SDS011;61528;49.456;11.098;2022-12-29T04:59:31;2.17;;;1.43;;
18661;SDS011;61528;49.456;11.098;2022-12-29T05:01:58;1.70;;;1.60;;
18661;SDS011;61528;49.456;11.098;2022-12-29T05:04:24;2.43;;;1.40;;
18661;SDS011;61528;49.456;11.098;2022-12-29T05:06:50;1.77;;;1.23;;
18661;SDS011;61528;49.456;11.098;2022-12-29T05:09:16;1.57;;;1.30;;
18661;SDS011;61528;49.456;11.098;2022-12-29T05:11:42;1.27;;;1.17;;
18661;SDS011;61528;49.456;11.098;2022-12-29T05:14:09;2.50;;;1.23;;
18661;SDS011;61528;49.456;11.098;2022-12-29T05:16:35;2.60;;;1.30;;
18661;SDS011;61528;49.456;11.098;2022-12-29T05:19:01;1.70;;;1.30;;
18661;SDS011;61528;49.456;11.098;2022-12-29T05:21:27;1.30;;;1.10;;
18661;SDS011;61528;49.456;11.098;2022-12-29T05:23:53;1.63;;;1.30;;
18661;SDS011;61528;49.456;11.098;2022-12-29T05:26:20;2.93;;;1.20;;
18661;SDS011;61528;49.456;11.098;2022-12-29T05:28:46;1.10;;;1.00;;
18661;SDS011;61528;49.456;11.098;2022-12-29T05:31:12;2.37;;;1.30;;
18661;SDS011;61528;49.456;11.098;2022-12-29T05:33:38;2.90;;;1.30;;
18661;SDS011;61528;49.456;11.098;2022-12-29T05:36:07;1.90;;;1.40;;
18661;SDS011;61528;49.456;11.098;2022-12-29T05:38:34;2.07;;;1.20;;
18661;SDS011;61528;49.456;11.098;2022-12-29T05:41:01;2.07;;;1.23;;
18661;SDS011;61528;49.456;11.098;2022-12-29T05:43:27;1.77;;;1.33;;
18661;SDS011;61528;49.456;11.098;2022-12-29T05:45:53;1.60;;;1.43;;
18661;SDS011;61528;49.456;11.098;2022-12-29T05:48:20;2.63;;;1.00;;
18661;SDS011;61528;49.456;11.098;2022-12-29T05:50:49;1.97;;;1.37;;
18661;SDS011;61528;49.456;11.098;2022-12-29T05:53:16;3.63;;;1.30;;
18661;SDS011;61528;49.456;11.098;2022-12-29T05:55:43;1.77;;;1.17;;
18661;SDS011;61528;49.456;11.098;2022-12-29T05:58:09;2.47;;;1.30;;
18661;SDS011;61528;49.456;11.098;2022-12-29T06:00:36;1.37;;;1.27;;
18661;SDS011;61528;49.456;11.098;2022-12-29T06:03:02;1.50;;;1.20;;
18661;SDS011;61528;49.456;11.098;2022-12-29T06:05:28;1.60;;;1.00;;
18661;SDS011;61528;49.456;11.098;2022-12-29T06:07:54;1.47;;;1.20;;
18661;SDS011;61528;49.456;11.098;2022-12-29T06:10:20;1.73;;;1.30;;
18661;SDS011;61528;49.456;11.098;2022-12-29T06:12:47;2.37;;;1.33;;
18661;SDS011;61528;49.456;11.098;2022-12-29T06:15:13;3.33;;;1.47;;
18661;SDS011;61528;49.456;11.098;2022-12-29T06:17:39;2.47;;;1.30;;
18661;SDS011;61528;49.456;11.098;2022-12-29T06:20:06;1.67;;;1.40;;
18661;SDS011;61528;49.456;11.098;2022-12-29T06:22:33;3.33;;;1.50;;
18661;SDS011;61528;49.456;11.098;2022-12-29T06:24:59;2.40;;;1.30;;
18661;SDS011;61528;49.456;11.098;2022-12-29T06:27:26;1.60;;;1.10;;
18661;SDS011;61528;49.456;11.098;2022-12-29T06:29:53;3.67;;;1.17;;
18661;SDS011;61528;49.456;11.098;2022-12-29T06:32:19;3.13;;;1.50;;
18661;SDS011;61528;49.456;11.098;2022-12-29T06:34:46;1.23;;;1.13;;
18661;SDS011;61528;49.456;11.098;2022-12-29T06:37:12;2.40;;;1.07;;
18661;SDS011;61528;49.456;11.098;2022-12-29T06:39:39;1.53;;;1.30;;
18661;SDS011;61528;49.456;11.098;2022-12-29T06:42:05;1.57;;;1.20;;
18661;SDS011;61528;49.456;11.098;2022-12-29T06:44:32;2.47;;;1.20;;
18661;SDS011;61528;49.456;11.098;2022-12-29T06:46:58;1.30;;;1.20;;
18661;SDS011;61528;49.456;11.098;2022-12-29T06:49:24;1.30;;;1.10;;
18661;SDS011;61528;49.456;11.098;2022-12-29T06:51:50;2.30;;;1.10;;
18661;SDS011;61528;49.456;11.098;2022-12-29T06:54:17;1.97;;;1.20;;
18661;SDS011;61528;49.456;11.098;2022-12-29T06:56:44;3.17;;;1.63;;
18661;SDS011;61528;49.456;11.098;2022-12-29T06:59:10;2.80;;;1.10;;
18661;SDS011;61528;49.456;11.098;2022-12-29T07:01:36;1.27;;;1.10;;
18661;SDS011;61528;49.456;11.098;2022-12-29T07:04:03;1.93;;;1.30;;
18661;SDS011;61528;49.456;11.098;2022-12-29T07:06:29;2.47;;;1.23;;
18661;SDS011;61528;49.456;11.098;2022-12-29T07:08:55;2.23;;;1.20;;
18661;SDS011;61528;49.456;11.098;2022-12-29T07:11:22;2.20;;;1.40;;
18661;SDS011;61528;49.456;11.098;2022-12-29T07:13:48;2.20;;;1.23;;
18661;SDS011;61528;49.456;11.098;2022-12-29T07:16:15;1.90;;;1.00;;
18661;SDS011;61528;49.456;11.098;2022-12-29T07:18:41;2.80;;;1.30;;
18661;SDS011;61528;49.456;11.098;2022-12-29T07:21:07;1.53;;;1.43;;
18661;SDS011;61528;49.456;11.098;2022-12-29T07:23:34;1.93;;;1.30;;
18661;SDS011;61528;49.456;11.098;2022-12-29T07:26:00;1.33;;;1.00;;
18661;SDS011;61528;49.456;11.098;2022-12-29T07:28:27;3.53;;;1.43;;
18661;SDS011;61528;49.456;11.098;2022-12-29T07:30:53;1.97;;;1.20;;
18661;SDS011;61528;49.456;11.098;2022-12-29T07:33:19;1.33;;;1.13;;
18661;SDS011;61528;49.456;11.098;2022-12-29T07:35:46;3.87;;;1.13;;
18661;SDS011;61528;49.456;11.098;2022-12-29T07:38:12;3.83;;;1.20;;
18661;SDS011;61528;49.456;11.098;2022-12-29T07:40:39;1.77;;;1.30;;
18661;SDS011;61528;49.456;11.098;2022-12-29T07:43:05;2.13;;;1.30;;
18661;SDS011;61528;49.456;11.098;2022-12-29T07:45:31;1.92;;;1.50;;
18661;SDS011;61528;49.456;11.098;2022-12-29T07:47:58;2.70;;;1.20;;
18661;SDS011;61528;49.456;11.098;2022-12-29T07:50:24;2.87;;;1.47;;
18661;SDS011;61528;49.456;11.098;2022-12-29T07:52:50;2.47;;;1.30;;
18661;SDS011;61528;49.456;11.098;2022-12-29T07:55:16;2.07;;;1.20;;
18661;SDS011;61528;49.456;11.098;2022-12-29T07:57:43;5.50;;;1.20;;
18661;SDS011;61528;49.456;11.098;2022-12-29T08:00:09;2.47;;;1.07;;
18661;SDS011;61528;49.456;11.098;2022-12-29T08:02:35;3.03;;;1.60;;
18661;SDS011;61528;49.456;11.098;2022-12-29T08:05:02;1.90;;;1.50;;
18661;SDS011;61528;49.456;11.098;2022-12-29T08:07:28;3.07;;;1.40;;
18661;SDS011;61528;49.456;11.098;2022-12-29T08:09:54;2.70;;;1.33;;
18661;SDS011;61528;49.456;11.098;2022-12-29T08:12:20;1.20;;;1.10;;
18661;SDS011;61528;49.456;11.098;2022-12-29T08:14:47;1.83;;;1.43;;
18661;SDS011;61528;49.456;11.098;2022-12-29T08:17:13;1.60;;;1.30;;
18661;SDS011;61528;49.456;11.098;2022-12-29T08:19:39;2.37;;;1.30;;
18661;SDS011;61528;49.456;11.098;2022-12-29T08:22:07;1.70;;;1.43;;
18661;SDS011;61528;49.456;11.098;2022-12-29T08:24:34;3.20;;;1.40;;
18661;SDS011;61528;49.456;11.098;2022-12-29T08:27:00;1.57;;;1.30;;
18661;SDS011;61528;49.456;11.098;2022-12-29T08:29:27;2.53;;;1.37;;
18661;SDS011;61528;49.456;11.098;2022-12-29T08:31:53;3.30;;;1.57;;
18661;SDS011;61528;49.456;11.098;2022-12-29T08:34:19;2.90;;;1.30;;
18661;SDS011;61528;49.456;11.098;2022-12-29T08:36:46;1.60;;;1.33;;
18661;SDS011;61528;49.456;11.098;2022-12-29T08:39:12;2.57;;;1.43;;
18661;SDS011;61528;49.456;11.098;2022-12-29T08:41:38;1.93;;;1.50;;
18661;SDS011;61528;49.456;11.098;2022-12-29T08:44:05;2.97;;;1.50;;
18661;SDS011;61528;49.456;11.098;2022-12-29T08:46:31;2.73;;;1.30;;
18661;SDS011;61528;49.456;11.098;2022-12-29T08:48:57;3.03;;;1.43;;
18661;SDS011;61528;49.456;11.098;2022-12-29T08:51:24;4.37;;;1.63;;
18661;SDS011;61528;49.456;11.098;2022-12-29T08:53:50;2.80;;;1.73;;
18661;SDS011;61528;49.456;11.098;2022-12-29T08:56:16;3.23;;;1.60;;
18661;SDS011;61528;49.456;11.098;2022-12-29T08:58:43;1.50;;;1.33;;
18661;SDS011;61528;49.456;11.098;2022-12-29T09:01:09;1.70;;;1.20;;
18661;SDS011;61528;49.456;11.098;2022-12-29T09:03:36;1.73;;;1.40;;
18661;SDS011;61528;49.456;11.098;2022-12-29T09:06:02;2.77;;;1.50;;
18661;SDS011;61528;49.456;11.098;2022-12-29T09:08:28;2.30;;;1.40;;
18661;SDS011;61528;49.456;11.098;2022-12-29T09:10:55;1.83;;;1.47;;
18661;SDS011;61528;49.456;11.098;2022-12-29T09:13:22;3.23;;;1.50;;
18661;SDS011;61528;49.456;11.098;2022-12-29T09:15:48;2.77;;;1.97;;
18661;SDS011;61528;49.456;11.098;2022-12-29T09:18:14;3.20;;;1.53;;
18661;SDS011;61528;49.456;11.098;2022-12-29T09:20:41;2.27;;;1.40;;
18661;SDS011;61528;49.456;11.098;2022-12-29T09:23:07;1.70;;;1.50;;
18661;SDS011;61528;49.456;11.098;2022-12-29T09:25:34;2.17;;;1.40;;
18661;SDS011;61528;49.456;11.098;2022-12-29T09:28:00;3.27;;;1.40;;
18661;SDS011;61528;49.456;11.098;2022-12-29T09:30:31;2.03;;;1.40;;
18661;SDS011;61528;49.456;11.098;2022-12-29T09:32:57;1.60;;;1.40;;
18661;SDS011;61528;49.456;11.098;2022-12-29T09:35:23;1.83;;;1.63;;
18661;SDS011;61528;49.456;11.098;2022-12-29T09:37:50;1.83;;;1.47;;
18661;SDS011;61528;49.456;11.098;2022-12-29T09:40:24;3.13;;;1.60;;
18661;SDS011;61528;49.456;11.098;2022-12-29T09:45:36;4.33;;;1.57;;
18661;SDS011;61528;49.456;11.098;2022-12-29T09:48:06;4.07;;;1.87;;
18661;SDS011;61528;49.456;11.098;2022-12-29T09:50:37;3.60;;;1.60;;
18661;SDS011;61528;49.456;11.098;2022-12-29T09:53:07;2.60;;;1.67;;
18661;SDS011;61528;49.456;11.098;2022-12-29T09:55:38;2.50;;;1.50;;
18661;SDS011;61528;49.456;11.098;2022-12-29T09:58:05;3.57;;;1.60;;
18661;SDS011;61528;49.456;11.098;2022-12-29T10:00:37;4.30;;;1.50;;
18661;SDS011;61528;49.456;11.098;2022-12-29T10:03:13;2.30;;;1.37;;
18661;SDS011;61528;49.456;11.098;2022-12-29T10:05:54;2.53;;;1.87;;
18661;SDS011;61528;49.456;11.098;2022-12-29T10:11:10;1.77;;;1.30;;
18661;SDS011;61528;49.456;11.098;2022-12-29T10:16:18;3.03;;;1.50;;
18661;SDS011;61528;49.456;11.098;2022-12-29T10:23:58;2.73;;;1.90;;
18661;SDS011;61528;49.456;11.098;2022-12-29T10:26:30;8.37;;;5.17;;
18661;SDS011;61528;49.456;11.098;2022-12-29T10:28:58;9.17;;;5.30;;
18661;SDS011;61528;49.456;11.098;2022-12-29T10:31:28;7.30;;;4.37;;
18661;SDS011;61528;49.456;11.098;2022-12-29T10:33:59;2.30;;;1.80;;
18661;SDS011;61528;49.456;11.098;2022-12-29T10:37:02;2.80;;;1.90;;
18661;SDS011;61528;49.456;11.098;2022-12-29T10:44:23;1.93;;;1.73;;
18661;SDS011;61528;49.456;11.098;2022-12-29T10:46:55;3.23;;;1.53;;
18661;SDS011;61528;49.456;11.098;2022-12-29T10:49:21;4.03;;;1.80;;
18661;SDS011;61528;49.456;11.098;2022-12-29T10:51:50;2.07;;;1.53;;
18661;SDS011;61528;49.456;11.098;2022-12-29T11:05:30;4.80;;;1.90;;
18661;SDS011;61528;49.456;11.098;2022-12-29T11:08:00;3.63;;;1.33;;
18661;SDS011;61528;49.456;11.098;2022-12-29T11:10:30;3.47;;;1.53;;
18661;SDS011;61528;49.456;11.098;2022-12-29T11:13:00;2.50;;;1.43;;
18661;SDS011;61528;49.456;11.098;2022-12-29T11:15:26;2.03;;;1.70;;
18661;SDS011;61528;49.456;11.098;2022-12-29T11:17:55;5.10;;;1.77;;
18661;SDS011;61528;49.456;11.098;2022-12-29T11:22:51;2.73;;;1.73;;
18661;SDS011;61528;49.456;11.098;2022-12-29T11:25:18;3.70;;;1.70;;
18661;SDS011;61528;49.456;11.098;2022-12-29T11:28:00;3.67;;;1.60;;
18661;SDS011;61528;49.456;11.098;2022-12-29T11:30:28;1.90;;;1.47;;
18661;SDS011;61528;49.456;11.098;2022-12-29T11:32:55;3.30;;;1.43;;
18661;SDS011;61528;49.456;11.098;2022-12-29T11:35:32;4.77;;;1.67;;
18661;SDS011;61528;49.456;11.098;2022-12-29T11:37:59;2.73;;;1.73;;
18661;SDS011;61528;49.456;11.098;2022-12-29T11:40:26;3.93;;;1.53;;
18661;SDS011;61528;49.456;11.098;2022-12-29T11:45:22;2.63;;;1.50;;
18661;SDS011;61528;49.456;11.098;2022-12-29T11:47:50;2.17;;;1.40;;
18661;SDS011;61528;49.456;11.098;2022-12-29T11:50:27;3.13;;;2.07;;
18661;SDS011;61528;49.456;11.098;2022-12-29T11:53:05;2.07;;;1.47;;
18661;SDS011;61528;49.456;11.098;2022-12-29T11:55:32;2.60;;;1.60;;
18661;SDS011;61528;49.456;11.098;2022-12-29T11:57:59;1.90;;;1.43;;
18661;SDS011;61528;49.456;11.098;2022-12-29T12:00:27;2.60;;;1.40;;
18661;SDS011;61528;49.456;11.098;2022-12-29T12:08:00;2.27;;;1.43;;
18661;SDS011;61528;49.456;11.098;2022-12-29T12:10:29;2.77;;;1.40;;
18661;SDS011;61528;49.456;11.098;2022-12-29T12:12:58;3.70;;;1.60;;
18661;SDS011;61528;49.456;11.098;2022-12-29T12:15:30;2.00;;;1.50;;
18661;SDS011;61528;49.456;11.098;2022-12-29T12:18:05;2.97;;;1.77;;
18661;SDS011;61528;49.456;11.098;2022-12-29T12:20:41;2.87;;;1.70;;
18661;SDS011;61528;49.456;11.098;2022-12-29T12:26:12;3.03;;;1.50;;
18661;SDS011;61528;49.456;11.098;2022-12-29T12:28:42;2.83;;;1.67;;
18661;SDS011;61528;49.456;11.098;2022-12-29T12:33:48;2.13;;;1.73;;
18661;SDS011;61528;49.456;11.098;2022-12-29T12:38:55;3.07;;;1.77;;
18661;SDS011;61528;49.456;11.098;2022-12-29T12:46:45;4.57;;;1.87;;
18661;SDS011;61528;49.456;11.098;2022-12-29T12:49:34;1.90;;;1.57;;
18661;SDS011;61528;49.456;11.098;2022-12-29T12:57:10;2.40;;;1.70;;
18661;SDS011;61528;49.456;11.098;2022-12-29T12:59:49;1.97;;;1.70;;
18661;SDS011;61528;49.456;11.098;2022-12-29T13:04:48;2.10;;;1.60;;
18661;SDS011;61528;49.456;11.098;2022-12-29T13:25:29;2.50;;;1.87;;
18661;SDS011;61528;49.456;11.098;2022-12-29T13:30:29;3.20;;;1.87;;
18661;SDS011;61528;49.456;11.098;2022-12-29T13:32:57;2.27;;;1.60;;
18661;SDS011;61528;49.456;11.098;2022-12-29T13:37:55;2.20;;;1.80;;
18661;SDS011;61528;49.456;11.098;2022-12-29T13:40:24;2.90;;;1.77;;
18661;SDS011;61528;49.456;11.098;2022-12-29T13:42:54;4.03;;;2.00;;
18661;SDS011;61528;49.456;11.098;2022-12-29T13:45:25;3.47;;;1.60;;
18661;SDS011;61528;49.456;11.098;2022-12-29T13:48:35;4.80;;;2.20;;
18661;SDS011;61528;49.456;11.098;2022-12-29T13:50:41;2.63;;;1.90;;
18661;SDS011;61528;49.456;11.098;2022-12-29T13:55:55;4.87;;;2.60;;
18661;SDS011;61528;49.456;11.098;2022-12-29T13:58:33;3.80;;;2.40;;
18661;SDS011;61528;49.456;11.098;2022-12-29T14:01:08;2.60;;;1.90;;
18661;SDS011;61528;49.456;11.098;2022-12-29T14:06:23;3.60;;;2.30;;
18661;SDS011;61528;49.456;11.098;2022-12-29T14:08:52;3.70;;;2.30;;
18661;SDS011;61528;49.456;11.098;2022-12-29T14:11:20;3.90;;;2.43;;
18661;SDS011;61528;49.456;11.098;2022-12-29T14:13:47;3.70;;;2.23;;
18661;SDS011;61528;49.456;11.098;2022-12-29T14:16:33;4.63;;;1.97;;
18661;SDS011;61528;49.456;11.098;2022-12-29T14:19:06;4.20;;;2.07;;
18661;SDS011;61528;49.456;11.098;2022-12-29T14:21:37;2.77;;;1.83;;
18661;SDS011;61528;49.456;11.098;2022-12-29T14:26:49;3.77;;;1.90;;
18661;SDS011;61528;49.456;11.098;2022-12-29T14:29:41;2.57;;;1.50;;
18661;SDS011;61528;49.456;11.098;2022-12-29T14:32:02;3.00;;;1.57;;
18661;SDS011;61528;49.456;11.098;2022-12-29T14:34:48;4.30;;;1.67;;
18661;SDS011;61528;49.456;11.098;2022-12-29T14:37:31;2.40;;;1.50;;
18661;SDS011;61528;49.456;11.098;2022-12-29T14:40:17;2.00;;;1.80;;
18661;SDS011;61528;49.456;11.098;2022-12-29T14:42:47;2.60;;;1.80;;
18661;SDS011;61528;49.456;11.098;2022-12-29T14:47:41;3.00;;;1.80;;
18661;SDS011;61528;49.456;11.098;2022-12-29T14:57:49;3.20;;;1.70;;
18661;SDS011;61528;49.456;11.098;2022-12-29T15:00:21;3.37;;;2.10;;
18661;SDS011;61528;49.456;11.098;2022-12-29T15:03:07;3.03;;;1.70;;
18661;SDS011;61528;49.456;11.098;2022-12-29T15:05:48;2.70;;;2.00;;
18661;SDS011;61528;49.456;11.098;2022-12-29T15:08:19;3.13;;;1.97;;
18661;SDS011;61528;49.456;11.098;2022-12-29T15:13:35;2.63;;;2.10;;
18661;SDS011;61528;49.456;11.098;2022-12-29T15:16:02;4.80;;;2.37;;
18661;SDS011;61528;49.456;11.098;2022-12-29T15:18:30;3.80;;;2.30;;
18661;SDS011;61528;49.456;11.098;2022-12-29T15:20:57;2.60;;;2.13;;
18661;SDS011;61528;49.456;11.098;2022-12-29T15:23:24;4.33;;;2.00;;
18661;SDS011;61528;49.456;11.098;2022-12-29T15:25:57;3.13;;;2.10;;
18661;SDS011;61528;49.456;11.098;2022-12-29T15:28:25;3.37;;;2.20;;
18661;SDS011;61528;49.456;11.098;2022-12-29T15:30:55;4.33;;;2.50;;
18661;SDS011;61528;49.456;11.098;2022-12-29T15:33:23;4.37;;;2.70;;
18661;SDS011;61528;49.456;11.098;2022-12-29T15:35:50;3.50;;;2.10;;
18661;SDS011;61528;49.456;11.098;2022-12-29T15:38:24;3.17;;;2.40;;
18661;SDS011;61528;49.456;11.098;2022-12-29T15:40:58;3.13;;;2.33;;
18661;SDS011;61528;49.456;11.098;2022-12-29T15:43:29;6.20;;;2.17;;
18661;SDS011;61528;49.456;11.098;2022-12-29T15:46:00;2.80;;;2.00;;
18661;SDS011;61528;49.456;11.098;2022-12-29T15:48:27;3.07;;;2.07;;
18661;SDS011;61528;49.456;11.098;2022-12-29T15:50:53;4.43;;;1.90;;
18661;SDS011;61528;49.456;11.098;2022-12-29T15:53:24;3.50;;;2.40;;
18661;SDS011;61528;49.456;11.098;2022-12-29T15:55:54;5.00;;;2.30;;
18661;SDS011;61528;49.456;11.098;2022-12-29T15:58:22;2.93;;;2.40;;
18661;SDS011;61528;49.456;11.098;2022-12-29T16:01:01;2.90;;;2.20;;
18661;SDS011;61528;49.456;11.098;2022-12-29T16:03:28;3.27;;;2.47;;
18661;SDS011;61528;49.456;11.098;2022-12-29T16:05:57;3.93;;;2.63;;
18661;SDS011;61528;49.456;11.098;2022-12-29T16:08:34;3.77;;;2.37;;
18661;SDS011;61528;49.456;11.098;2022-12-29T16:11:03;6.37;;;2.90;;
18661;SDS011;61528;49.456;11.098;2022-12-29T16:13:30;4.10;;;2.83;;
18661;SDS011;61528;49.456;11.098;2022-12-29T16:16:07;4.70;;;2.67;;
18661;SDS011;61528;49.456;11.098;2022-12-29T16:18:35;3.80;;;2.27;;
18661;SDS011;61528;49.456;11.098;2022-12-29T16:21:02;3.40;;;2.43;;
18661;SDS011;61528;49.456;11.098;2022-12-29T16:23:30;6.13;;;2.77;;
18661;SDS011;61528;49.456;11.098;2022-12-29T16:25:57;2.67;;;2.47;;
18661;SDS011;61528;49.456;11.098;2022-12-29T16:28:42;3.97;;;2.20;;
18661;SDS011;61528;49.456;11.098;2022-12-29T16:31:21;3.10;;;2.60;;
18661;SDS011;61528;49.456;11.098;2022-12-29T16:33:49;2.90;;;2.57;;
18661;SDS011;61528;49.456;11.098;2022-12-29T16:36:29;4.67;;;2.63;;
18661;SDS011;61528;49.456;11.098;2022-12-29T16:39:04;3.83;;;2.27;;
18661;SDS011;61528;49.456;11.098;2022-12-29T16:41:30;6.13;;;3.03;;
18661;SDS011;61528;49.456;11.098;2022-12-29T16:44:15;3.47;;;2.73;;
18661;SDS011;61528;49.456;11.098;2022-12-29T16:46:56;5.53;;;2.77;;
18661;SDS011;61528;49.456;11.098;2022-12-29T16:49:23;4.40;;;2.73;;
18661;SDS011;61528;49.456;11.098;2022-12-29T16:51:51;3.57;;;2.77;;
18661;SDS011;61528;49.456;11.098;2022-12-29T16:54:24;5.77;;;3.50;;
18661;SDS011;61528;49.456;11.098;2022-12-29T16:56:50;5.40;;;3.10;;
18661;SDS011;61528;49.456;11.098;2022-12-29T17:01:47;3.00;;;2.43;;
18661;SDS011;61528;49.456;11.098;2022-12-29T17:04:13;5.07;;;2.67;;
18661;SDS011;61528;49.456;11.098;2022-12-29T17:06:40;3.77;;;2.80;;
18661;SDS011;61528;49.456;11.098;2022-12-29T17:09:20;5.37;;;3.07;;